Detall de PIREP

Printer-friendly versionPDF version

[2013/05/24 09:31:00]
Flight IATA:CT0001
Pilot Number:042
Company ICAO:CAT
Aircraft Type:F100/A
PAX:23
Aircraft Registration:PFJ
Departing Airport: LERS
Destination Airport: LEAL
Alternate Airport:LEVC
Online: VATSIM
Route:EBROX UM985 VLC
Flight Level:F290
No Slew and time accel
No pause
Crash detect
Detect pilot in Cockpit between each 30 and 45 minutes
09:31 Zero fuel Weight: 81826 Lbs, Fuel Weight: 22678 Lbs
09:31 VATSIM:LERS 240900Z 29013KT 240V330 9999 FEW030 17/00 Q1014
09:31 VATSIM:LEAL 240900Z 08011KT 050V110 9999 FEW025 19/11 Q1016 NOSIG
09:31 VOICE CATALONIAN
09:37 Parking Brakes off
09:43 Take-off
09:43 Take off Weight: 103951 Lbs
09:43 Wind: 000º @ 000 Knots Heading: 249º
09:43 POS N41º 08´ 42´´ E001º 09´ 32´´
09:43 Gear Up: 173 Knots
09:43 Flaps:2 at 173 Knots
09:43 Flaps:1 at 176 Knots
09:44 Flaps:0 at 197 Knots
09:57 TOC
09:57 Fuel Weight: 20228 Lb
09:58 Wind:309º@053 Knots Heading: 235º Ground Speed: 350 Knots Altitude 29078 ft
10:06 TOD
10:06 Fuel Weight: 19403 Lb
10:13 Wind:308º@032 Knots Heading: 201º Ground Speed: 348 Knots Altitude 16263 ft
10:18 Flaps:1 at 204 Knots
10:18 Flaps:2 at 196 Knots
10:21 Gear Down: 166 Knots
10:21 Flaps:3 at 161 Knots
10:24 TouchDown:Rate -83 ft/min Speed: 147 Knots
10:24 VATSIM:LEAL 241000Z 09010KT 060V120 9999 FEW025 20/11 Q1017 NOSIG
10:24 Land
10:24 Wind:190º@005 Knots
10:24 Heading: 100º
10:24 Flight Duration: 00:41
10:24 Landing Weight: 100347 Lbs
10:24 POS N38º 16´ 55´´ W000º 33´ 27´´
10:26 Parking brakes on
10:26 Block to Block Duration: 00:49
10:26 Final Fuel: 18436 Lbls
10:26 Spent Fuel: 4241 Lbls
10:26 Flight Length: 218 NM
10:26 TOD Land Length: 84 NM

Exportar CSV

Powered by Drupal - Modified by Danger4k